sensor_id;sensor_type;location;lat;lon;timestamp;P1;durP1;ratioP1;P2;durP2;ratioP2
66669;SDS011;53568;52.164;4.472;2024-03-22T00:01:50;30.84;;;27.95;;
66669;SDS011;53568;52.164;4.472;2024-03-22T00:04:16;31.55;;;28.45;;
66669;SDS011;53568;52.164;4.472;2024-03-22T00:06:42;30.42;;;27.89;;
66669;SDS011;53568;52.164;4.472;2024-03-22T00:09:10;31.97;;;28.80;;
66669;SDS011;53568;52.164;4.472;2024-03-22T00:11:36;31.46;;;28.48;;
66669;SDS011;53568;52.164;4.472;2024-03-22T00:14:02;32.00;;;29.04;;
66669;SDS011;53568;52.164;4.472;2024-03-22T00:16:28;30.87;;;28.18;;
66669;SDS011;53568;52.164;4.472;2024-03-22T00:18:54;31.16;;;28.37;;
66669;SDS011;53568;52.164;4.472;2024-03-22T00:21:20;32.50;;;28.94;;
66669;SDS011;53568;52.164;4.472;2024-03-22T00:23:47;31.69;;;28.57;;
66669;SDS011;53568;52.164;4.472;2024-03-22T00:26:12;30.61;;;28.15;;
66669;SDS011;53568;52.164;4.472;2024-03-22T00:28:38;30.36;;;27.76;;
66669;SDS011;53568;52.164;4.472;2024-03-22T00:31:03;30.97;;;28.67;;
66669;SDS011;53568;52.164;4.472;2024-03-22T00:33:29;30.28;;;27.89;;
66669;SDS011;53568;52.164;4.472;2024-03-22T00:35:54;30.78;;;28.22;;
66669;SDS011;53568;52.164;4.472;2024-03-22T00:38:20;31.00;;;28.64;;
66669;SDS011;53568;52.164;4.472;2024-03-22T00:40:45;31.27;;;29.01;;
66669;SDS011;53568;52.164;4.472;2024-03-22T00:43:11;30.80;;;28.78;;
66669;SDS011;53568;52.164;4.472;2024-03-22T00:45:36;31.33;;;28.95;;
66669;SDS011;53568;52.164;4.472;2024-03-22T00:48:02;31.88;;;29.67;;
66669;SDS011;53568;52.164;4.472;2024-03-22T00:50:27;32.13;;;29.92;;
66669;SDS011;53568;52.164;4.472;2024-03-22T00:52:54;32.35;;;29.73;;
66669;SDS011;53568;52.164;4.472;2024-03-22T00:55:21;32.16;;;30.02;;
66669;SDS011;53568;52.164;4.472;2024-03-22T00:57:48;33.02;;;30.68;;
66669;SDS011;53568;52.164;4.472;2024-03-22T01:00:13;33.17;;;31.02;;
66669;SDS011;53568;52.164;4.472;2024-03-22T01:02:40;32.49;;;30.32;;
66669;SDS011;53568;52.164;4.472;2024-03-22T01:05:06;33.83;;;31.79;;
66669;SDS011;53568;52.164;4.472;2024-03-22T01:07:31;33.47;;;31.17;;
66669;SDS011;53568;52.164;4.472;2024-03-22T01:09:57;32.44;;;30.08;;
66669;SDS011;53568;52.164;4.472;2024-03-22T01:12:22;33.70;;;31.14;;
66669;SDS011;53568;52.164;4.472;2024-03-22T01:14:48;33.44;;;30.95;;
66669;SDS011;53568;52.164;4.472;2024-03-22T01:17:13;30.88;;;28.76;;
66669;SDS011;53568;52.164;4.472;2024-03-22T01:19:39;30.55;;;28.68;;
66669;SDS011;53568;52.164;4.472;2024-03-22T01:22:04;29.54;;;28.05;;
66669;SDS011;53568;52.164;4.472;2024-03-22T01:24:30;30.07;;;28.49;;
66669;SDS011;53568;52.164;4.472;2024-03-22T01:26:55;27.55;;;26.08;;
66669;SDS011;53568;52.164;4.472;2024-03-22T01:29:21;28.43;;;26.76;;
66669;SDS011;53568;52.164;4.472;2024-03-22T01:31:47;27.73;;;26.11;;
66669;SDS011;53568;52.164;4.472;2024-03-22T01:34:13;25.98;;;24.82;;
66669;SDS011;53568;52.164;4.472;2024-03-22T01:36:38;26.46;;;25.47;;
66669;SDS011;53568;52.164;4.472;2024-03-22T01:39:04;25.47;;;24.57;;
66669;SDS011;53568;52.164;4.472;2024-03-22T01:41:29;25.42;;;24.51;;
66669;SDS011;53568;52.164;4.472;2024-03-22T01:43:55;25.94;;;24.85;;
66669;SDS011;53568;52.164;4.472;2024-03-22T01:46:21;24.75;;;23.87;;
66669;SDS011;53568;52.164;4.472;2024-03-22T01:48:47;22.85;;;22.21;;
66669;SDS011;53568;52.164;4.472;2024-03-22T01:51:12;22.36;;;21.71;;
66669;SDS011;53568;52.164;4.472;2024-03-22T01:53:39;21.92;;;21.18;;
66669;SDS011;53568;52.164;4.472;2024-03-22T01:56:05;20.97;;;20.43;;
66669;SDS011;53568;52.164;4.472;2024-03-22T01:58:32;20.36;;;19.92;;
66669;SDS011;53568;52.164;4.472;2024-03-22T02:00:58;19.28;;;19.15;;
66669;SDS011;53568;52.164;4.472;2024-03-22T02:03:23;18.32;;;18.26;;
66669;SDS011;53568;52.164;4.472;2024-03-22T02:05:49;17.77;;;17.70;;
66669;SDS011;53568;52.164;4.472;2024-03-22T02:08:14;17.92;;;17.85;;
66669;SDS011;53568;52.164;4.472;2024-03-22T02:10:40;18.41;;;18.21;;
66669;SDS011;53568;52.164;4.472;2024-03-22T02:13:05;17.60;;;17.41;;
66669;SDS011;53568;52.164;4.472;2024-03-22T02:15:31;17.85;;;17.63;;
66669;SDS011;53568;52.164;4.472;2024-03-22T02:17:57;19.02;;;18.63;;
66669;SDS011;53568;52.164;4.472;2024-03-22T02:20:22;19.15;;;18.71;;
66669;SDS011;53568;52.164;4.472;2024-03-22T02:22:48;18.66;;;18.52;;
66669;SDS011;53568;52.164;4.472;2024-03-22T02:25:13;18.79;;;18.64;;
66669;SDS011;53568;52.164;4.472;2024-03-22T02:27:39;18.36;;;18.26;;
66669;SDS011;53568;52.164;4.472;2024-03-22T02:30:04;18.34;;;18.16;;
66669;SDS011;53568;52.164;4.472;2024-03-22T02:32:30;18.29;;;18.11;;
66669;SDS011;53568;52.164;4.472;2024-03-22T02:34:56;18.73;;;18.58;;
66669;SDS011;53568;52.164;4.472;2024-03-22T02:37:21;17.61;;;17.51;;
66669;SDS011;53568;52.164;4.472;2024-03-22T02:39:47;17.28;;;17.14;;
66669;SDS011;53568;52.164;4.472;2024-03-22T02:42:12;17.60;;;17.49;;
66669;SDS011;53568;52.164;4.472;2024-03-22T02:44:38;17.78;;;17.68;;
66669;SDS011;53568;52.164;4.472;2024-03-22T02:47:08;17.67;;;17.37;;
66669;SDS011;53568;52.164;4.472;2024-03-22T02:49:35;17.22;;;17.11;;
66669;SDS011;53568;52.164;4.472;2024-03-22T02:52:00;17.06;;;17.01;;
66669;SDS011;53568;52.164;4.472;2024-03-22T02:54:26;15.85;;;15.74;;
66669;SDS011;53568;52.164;4.472;2024-03-22T02:56:51;15.90;;;15.78;;
66669;SDS011;53568;52.164;4.472;2024-03-22T02:59:17;15.66;;;15.62;;
66669;SDS011;53568;52.164;4.472;2024-03-22T03:01:42;16.38;;;16.27;;
66669;SDS011;53568;52.164;4.472;2024-03-22T03:04:08;16.37;;;16.28;;
66669;SDS011;53568;52.164;4.472;2024-03-22T03:06:34;16.44;;;16.31;;
66669;SDS011;53568;52.164;4.472;2024-03-22T03:08:59;16.74;;;16.53;;
66669;SDS011;53568;52.164;4.472;2024-03-22T03:11:24;16.94;;;16.76;;
66669;SDS011;53568;52.164;4.472;2024-03-22T03:13:50;16.66;;;16.52;;
66669;SDS011;53568;52.164;4.472;2024-03-22T03:16:16;16.19;;;16.13;;
66669;SDS011;53568;52.164;4.472;2024-03-22T03:18:42;16.10;;;16.00;;
66669;SDS011;53568;52.164;4.472;2024-03-22T03:21:08;16.18;;;16.08;;
66669;SDS011;53568;52.164;4.472;2024-03-22T03:23:34;16.40;;;16.26;;
66669;SDS011;53568;52.164;4.472;2024-03-22T03:26:00;15.45;;;15.31;;
66669;SDS011;53568;52.164;4.472;2024-03-22T03:28:25;15.80;;;15.64;;
66669;SDS011;53568;52.164;4.472;2024-03-22T03:30:51;15.31;;;15.16;;
66669;SDS011;53568;52.164;4.472;2024-03-22T03:33:16;15.00;;;14.88;;
66669;SDS011;53568;52.164;4.472;2024-03-22T03:35:45;15.21;;;14.90;;
66669;SDS011;53568;52.164;4.472;2024-03-22T03:38:12;14.35;;;13.97;;
66669;SDS011;53568;52.164;4.472;2024-03-22T03:40:37;14.93;;;14.70;;
66669;SDS011;53568;52.164;4.472;2024-03-22T03:43:03;14.80;;;14.62;;
66669;SDS011;53568;52.164;4.472;2024-03-22T03:45:28;15.06;;;14.89;;
66669;SDS011;53568;52.164;4.472;2024-03-22T03:47:54;15.36;;;15.25;;
66669;SDS011;53568;52.164;4.472;2024-03-22T03:50:19;15.16;;;15.09;;
66669;SDS011;53568;52.164;4.472;2024-03-22T03:52:45;14.96;;;14.83;;
66669;SDS011;53568;52.164;4.472;2024-03-22T03:55:10;14.86;;;14.76;;
66669;SDS011;53568;52.164;4.472;2024-03-22T03:57:36;15.35;;;15.20;;
66669;SDS011;53568;52.164;4.472;2024-03-22T04:00:02;14.15;;;14.05;;
66669;SDS011;53568;52.164;4.472;2024-03-22T04:02:28;14.39;;;14.28;;
66669;SDS011;53568;52.164;4.472;2024-03-22T04:04:53;13.41;;;13.28;;
66669;SDS011;53568;52.164;4.472;2024-03-22T04:07:22;12.96;;;12.77;;
66669;SDS011;53568;52.164;4.472;2024-03-22T04:09:47;13.30;;;13.05;;
66669;SDS011;53568;52.164;4.472;2024-03-22T04:12:13;13.01;;;12.72;;
66669;SDS011;53568;52.164;4.472;2024-03-22T04:14:39;12.25;;;12.08;;
66669;SDS011;53568;52.164;4.472;2024-03-22T04:17:04;11.65;;;11.52;;
66669;SDS011;53568;52.164;4.472;2024-03-22T04:19:30;11.16;;;10.87;;
66669;SDS011;53568;52.164;4.472;2024-03-22T04:21:55;11.43;;;11.06;;
66669;SDS011;53568;52.164;4.472;2024-03-22T04:24:21;11.35;;;10.98;;
66669;SDS011;53568;52.164;4.472;2024-03-22T04:26:46;10.88;;;10.44;;
66669;SDS011;53568;52.164;4.472;2024-03-22T04:29:12;10.48;;;10.03;;
66669;SDS011;53568;52.164;4.472;2024-03-22T04:31:37;11.12;;;10.64;;
66669;SDS011;53568;52.164;4.472;2024-03-22T04:34:03;10.41;;;10.08;;
66669;SDS011;53568;52.164;4.472;2024-03-22T04:36:30;10.20;;;9.81;;
66669;SDS011;53568;52.164;4.472;2024-03-22T04:38:56;10.13;;;9.77;;
66669;SDS011;53568;52.164;4.472;2024-03-22T04:41:21;10.53;;;10.08;;
66669;SDS011;53568;52.164;4.472;2024-03-22T04:43:47;10.20;;;9.76;;
66669;SDS011;53568;52.164;4.472;2024-03-22T04:46:12;9.76;;;9.44;;
66669;SDS011;53568;52.164;4.472;2024-03-22T04:48:38;9.74;;;9.49;;
66669;SDS011;53568;52.164;4.472;2024-03-22T04:51:03;10.18;;;9.83;;
66669;SDS011;53568;52.164;4.472;2024-03-22T04:53:29;10.55;;;10.17;;
66669;SDS011;53568;52.164;4.472;2024-03-22T04:55:55;10.50;;;10.14;;
66669;SDS011;53568;52.164;4.472;2024-03-22T04:58:21;11.04;;;10.68;;
66669;SDS011;53568;52.164;4.472;2024-03-22T05:00:55;10.38;;;10.10;;
66669;SDS011;53568;52.164;4.472;2024-03-22T05:03:22;10.81;;;10.49;;
66669;SDS011;53568;52.164;4.472;2024-03-22T05:05:49;10.22;;;10.03;;
66669;SDS011;53568;52.164;4.472;2024-03-22T05:08:15;10.88;;;10.59;;
66669;SDS011;53568;52.164;4.472;2024-03-22T05:10:41;10.77;;;10.55;;
66669;SDS011;53568;52.164;4.472;2024-03-22T05:13:07;10.79;;;10.51;;
66669;SDS011;53568;52.164;4.472;2024-03-22T05:15:32;10.93;;;10.51;;
66669;SDS011;53568;52.164;4.472;2024-03-22T05:17:58;10.87;;;10.63;;
66669;SDS011;53568;52.164;4.472;2024-03-22T05:20:25;10.75;;;10.46;;
66669;SDS011;53568;52.164;4.472;2024-03-22T05:22:51;10.87;;;10.48;;
66669;SDS011;53568;52.164;4.472;2024-03-22T05:25:18;10.59;;;10.35;;
66669;SDS011;53568;52.164;4.472;2024-03-22T05:27:44;10.94;;;10.53;;
66669;SDS011;53568;52.164;4.472;2024-03-22T05:30:10;10.73;;;10.43;;
66669;SDS011;53568;52.164;4.472;2024-03-22T05:32:36;10.41;;;10.23;;
66669;SDS011;53568;52.164;4.472;2024-03-22T05:35:01;10.16;;;9.91;;
66669;SDS011;53568;52.164;4.472;2024-03-22T05:37:27;9.98;;;9.73;;
66669;SDS011;53568;52.164;4.472;2024-03-22T05:39:52;10.14;;;9.91;;
66669;SDS011;53568;52.164;4.472;2024-03-22T05:42:18;9.69;;;9.52;;
66669;SDS011;53568;52.164;4.472;2024-03-22T05:44:44;9.43;;;9.20;;
66669;SDS011;53568;52.164;4.472;2024-03-22T05:47:10;10.01;;;9.70;;
66669;SDS011;53568;52.164;4.472;2024-03-22T05:49:35;9.47;;;9.22;;
66669;SDS011;53568;52.164;4.472;2024-03-22T05:52:01;9.63;;;9.28;;
66669;SDS011;53568;52.164;4.472;2024-03-22T05:54:27;9.94;;;9.58;;
66669;SDS011;53568;52.164;4.472;2024-03-22T05:56:52;10.10;;;9.68;;
66669;SDS011;53568;52.164;4.472;2024-03-22T05:59:18;9.83;;;9.46;;
66669;SDS011;53568;52.164;4.472;2024-03-22T06:01:43;9.67;;;9.35;;
66669;SDS011;53568;52.164;4.472;2024-03-22T06:04:09;10.38;;;10.03;;
66669;SDS011;53568;52.164;4.472;2024-03-22T06:06:34;10.90;;;10.32;;
66669;SDS011;53568;52.164;4.472;2024-03-22T06:09:01;10.54;;;10.06;;
66669;SDS011;53568;52.164;4.472;2024-03-22T06:11:33;10.32;;;9.88;;
66669;SDS011;53568;52.164;4.472;2024-03-22T06:13:59;10.39;;;10.03;;
66669;SDS011;53568;52.164;4.472;2024-03-22T06:16:24;9.83;;;9.58;;
66669;SDS011;53568;52.164;4.472;2024-03-22T06:18:50;10.21;;;9.80;;
66669;SDS011;53568;52.164;4.472;2024-03-22T06:21:15;10.06;;;9.57;;
66669;SDS011;53568;52.164;4.472;2024-03-22T06:23:47;10.06;;;9.61;;
66669;SDS011;53568;52.164;4.472;2024-03-22T06:26:15;9.42;;;9.13;;
66669;SDS011;53568;52.164;4.472;2024-03-22T06:28:41;9.01;;;8.81;;
66669;SDS011;53568;52.164;4.472;2024-03-22T06:31:07;9.09;;;8.90;;
66669;SDS011;53568;52.164;4.472;2024-03-22T06:33:33;9.64;;;9.25;;
66669;SDS011;53568;52.164;4.472;2024-03-22T06:35:58;9.15;;;8.74;;
66669;SDS011;53568;52.164;4.472;2024-03-22T06:38:25;9.07;;;8.75;;
66669;SDS011;53568;52.164;4.472;2024-03-22T06:40:50;9.38;;;9.03;;
66669;SDS011;53568;52.164;4.472;2024-03-22T06:43:16;9.73;;;9.13;;
66669;SDS011;53568;52.164;4.472;2024-03-22T06:45:41;9.72;;;8.97;;
66669;SDS011;53568;52.164;4.472;2024-03-22T06:48:06;9.17;;;8.64;;
66669;SDS011;53568;52.164;4.472;2024-03-22T06:50:32;9.16;;;8.69;;
66669;SDS011;53568;52.164;4.472;2024-03-22T06:52:57;9.59;;;9.10;;
66669;SDS011;53568;52.164;4.472;2024-03-22T06:55:23;9.29;;;8.99;;
66669;SDS011;53568;52.164;4.472;2024-03-22T06:57:49;9.61;;;9.16;;
66669;SDS011;53568;52.164;4.472;2024-03-22T07:00:15;8.97;;;8.62;;
66669;SDS011;53568;52.164;4.472;2024-03-22T07:02:41;9.45;;;8.96;;
66669;SDS011;53568;52.164;4.472;2024-03-22T07:05:07;9.41;;;8.79;;
66669;SDS011;53568;52.164;4.472;2024-03-22T07:07:34;9.66;;;9.02;;
66669;SDS011;53568;52.164;4.472;2024-03-22T07:10:00;9.49;;;9.01;;
66669;SDS011;53568;52.164;4.472;2024-03-22T07:12:26;9.71;;;9.20;;
66669;SDS011;53568;52.164;4.472;2024-03-22T07:14:51;9.77;;;9.12;;
66669;SDS011;53568;52.164;4.472;2024-03-22T07:17:17;10.42;;;9.68;;
66669;SDS011;53568;52.164;4.472;2024-03-22T07:19:42;10.72;;;9.87;;
66669;SDS011;53568;52.164;4.472;2024-03-22T07:22:08;10.11;;;9.72;;
66669;SDS011;53568;52.164;4.472;2024-03-22T07:24:34;10.13;;;9.60;;
66669;SDS011;53568;52.164;4.472;2024-03-22T07:26:59;10.50;;;9.94;;
66669;SDS011;53568;52.164;4.472;2024-03-22T07:29:25;10.49;;;10.04;;
66669;SDS011;53568;52.164;4.472;2024-03-22T07:31:50;10.63;;;10.14;;
66669;SDS011;53568;52.164;4.472;2024-03-22T07:34:16;9.95;;;9.54;;
66669;SDS011;53568;52.164;4.472;2024-03-22T07:36:41;10.54;;;9.98;;
66669;SDS011;53568;52.164;4.472;2024-03-22T07:39:07;10.63;;;10.17;;
66669;SDS011;53568;52.164;4.472;2024-03-22T07:41:33;10.99;;;10.46;;
66669;SDS011;53568;52.164;4.472;2024-03-22T07:43:59;11.02;;;10.58;;
66669;SDS011;53568;52.164;4.472;2024-03-22T07:46:25;11.71;;;11.14;;
66669;SDS011;53568;52.164;4.472;2024-03-22T07:48:51;11.14;;;10.59;;
66669;SDS011;53568;52.164;4.472;2024-03-22T07:51:17;10.71;;;10.33;;
66669;SDS011;53568;52.164;4.472;2024-03-22T07:53:43;10.33;;;9.96;;
66669;SDS011;53568;52.164;4.472;2024-03-22T07:56:09;10.67;;;10.43;;
66669;SDS011;53568;52.164;4.472;2024-03-22T07:58:34;11.27;;;10.77;;
66669;SDS011;53568;52.164;4.472;2024-03-22T08:01:00;10.51;;;9.90;;
66669;SDS011;53568;52.164;4.472;2024-03-22T08:03:25;10.60;;;9.95;;
66669;SDS011;53568;52.164;4.472;2024-03-22T08:05:51;10.27;;;9.77;;
66669;SDS011;53568;52.164;4.472;2024-03-22T08:08:17;11.03;;;10.34;;
66669;SDS011;53568;52.164;4.472;2024-03-22T08:10:43;10.25;;;9.68;;
66669;SDS011;53568;52.164;4.472;2024-03-22T08:13:08;10.16;;;9.60;;
66669;SDS011;53568;52.164;4.472;2024-03-22T08:15:34;10.38;;;9.77;;
66669;SDS011;53568;52.164;4.472;2024-03-22T08:18:00;9.87;;;9.55;;
66669;SDS011;53568;52.164;4.472;2024-03-22T08:20:26;10.11;;;9.69;;
66669;SDS011;53568;52.164;4.472;2024-03-22T08:22:52;10.77;;;10.20;;
66669;SDS011;53568;52.164;4.472;2024-03-22T08:25:17;11.31;;;10.74;;
66669;SDS011;53568;52.164;4.472;2024-03-22T08:27:45;10.95;;;10.64;;
66669;SDS011;53568;52.164;4.472;2024-03-22T08:30:12;11.51;;;11.09;;
66669;SDS011;53568;52.164;4.472;2024-03-22T08:32:38;11.60;;;11.11;;
66669;SDS011;53568;52.164;4.472;2024-03-22T08:35:03;11.39;;;11.08;;
66669;SDS011;53568;52.164;4.472;2024-03-22T08:37:29;11.19;;;10.89;;
66669;SDS011;53568;52.164;4.472;2024-03-22T08:39:56;10.83;;;10.49;;
66669;SDS011;53568;52.164;4.472;2024-03-22T08:42:21;11.19;;;10.87;;
66669;SDS011;53568;52.164;4.472;2024-03-22T08:44:47;11.91;;;11.44;;
66669;SDS011;53568;52.164;4.472;2024-03-22T08:47:12;11.11;;;10.88;;
66669;SDS011;53568;52.164;4.472;2024-03-22T08:49:38;11.02;;;10.79;;
66669;SDS011;53568;52.164;4.472;2024-03-22T08:52:04;10.84;;;10.60;;
66669;SDS011;53568;52.164;4.472;2024-03-22T08:54:30;11.46;;;11.08;;
66669;SDS011;53568;52.164;4.472;2024-03-22T08:56:55;11.78;;;11.48;;
66669;SDS011;53568;52.164;4.472;2024-03-22T08:59:21;11.87;;;11.46;;
66669;SDS011;53568;52.164;4.472;2024-03-22T09:01:49;11.83;;;11.53;;
66669;SDS011;53568;52.164;4.472;2024-03-22T09:04:15;11.70;;;11.38;;
66669;SDS011;53568;52.164;4.472;2024-03-22T09:06:40;11.37;;;11.18;;
66669;SDS011;53568;52.164;4.472;2024-03-22T09:09:06;11.73;;;11.37;;
66669;SDS011;53568;52.164;4.472;2024-03-22T09:11:32;11.35;;;11.05;;
66669;SDS011;53568;52.164;4.472;2024-03-22T09:13:57;12.27;;;11.90;;
66669;SDS011;53568;52.164;4.472;2024-03-22T09:16:23;11.88;;;11.46;;
66669;SDS011;53568;52.164;4.472;2024-03-22T09:18:49;12.27;;;12.05;;
66669;SDS011;53568;52.164;4.472;2024-03-22T09:21:14;12.44;;;12.17;;
66669;SDS011;53568;52.164;4.472;2024-03-22T09:23:40;12.22;;;11.96;;
66669;SDS011;53568;52.164;4.472;2024-03-22T09:26:05;12.18;;;11.94;;
66669;SDS011;53568;52.164;4.472;2024-03-22T09:28:31;12.68;;;12.45;;
66669;SDS011;53568;52.164;4.472;2024-03-22T09:30:57;12.46;;;12.27;;
66669;SDS011;53568;52.164;4.472;2024-03-22T09:33:22;13.33;;;13.12;;
66669;SDS011;53568;52.164;4.472;2024-03-22T09:35:48;13.44;;;13.29;;
66669;SDS011;53568;52.164;4.472;2024-03-22T09:38:13;13.11;;;12.97;;
66669;SDS011;53568;52.164;4.472;2024-03-22T09:40:40;12.53;;;12.41;;
66669;SDS011;53568;52.164;4.472;2024-03-22T09:43:07;12.65;;;12.55;;
66669;SDS011;53568;52.164;4.472;2024-03-22T09:45:33;12.77;;;12.67;;
66669;SDS011;53568;52.164;4.472;2024-03-22T09:47:59;12.51;;;12.41;;
66669;SDS011;53568;52.164;4.472;2024-03-22T09:50:25;12.91;;;12.81;;
66669;SDS011;53568;52.164;4.472;2024-03-22T09:52:52;13.43;;;13.29;;
66669;SDS011;53568;52.164;4.472;2024-03-22T09:55:22;12.93;;;12.87;;
66669;SDS011;53568;52.164;4.472;2024-03-22T09:57:48;13.11;;;13.08;;
66669;SDS011;53568;52.164;4.472;2024-03-22T10:00:16;13.27;;;13.25;;
66669;SDS011;53568;52.164;4.472;2024-03-22T10:02:48;13.27;;;13.19;;
66669;SDS011;53568;52.164;4.472;2024-03-22T10:05:15;13.73;;;13.62;;
66669;SDS011;53568;52.164;4.472;2024-03-22T10:07:42;13.58;;;13.52;;
66669;SDS011;53568;52.164;4.472;2024-03-22T10:10:09;14.31;;;14.25;;
66669;SDS011;53568;52.164;4.472;2024-03-22T10:12:35;13.86;;;13.80;;
66669;SDS011;53568;52.164;4.472;2024-03-22T10:15:01;14.23;;;14.14;;
66669;SDS011;53568;52.164;4.472;2024-03-22T10:17:28;14.31;;;14.23;;
66669;SDS011;53568;52.164;4.472;2024-03-22T10:19:54;14.01;;;14.00;;
66669;SDS011;53568;52.164;4.472;2024-03-22T10:22:20;14.49;;;14.43;;
66669;SDS011;53568;52.164;4.472;2024-03-22T10:24:45;14.89;;;14.74;;
66669;SDS011;53568;52.164;4.472;2024-03-22T10:27:11;14.53;;;14.40;;
66669;SDS011;53568;52.164;4.472;2024-03-22T10:29:37;14.43;;;14.40;;
66669;SDS011;53568;52.164;4.472;2024-03-22T10:32:03;13.97;;;13.93;;
66669;SDS011;53568;52.164;4.472;2024-03-22T10:34:29;13.89;;;13.86;;
66669;SDS011;53568;52.164;4.472;2024-03-22T10:36:59;14.58;;;14.52;;
66669;SDS011;53568;52.164;4.472;2024-03-22T10:39:26;15.08;;;15.04;;
66669;SDS011;53568;52.164;4.472;2024-03-22T10:41:53;14.70;;;14.65;;
66669;SDS011;53568;52.164;4.472;2024-03-22T10:44:19;15.72;;;15.59;;
66669;SDS011;53568;52.164;4.472;2024-03-22T10:46:46;16.10;;;16.04;;
66669;SDS011;53568;52.164;4.472;2024-03-22T10:49:16;15.81;;;15.74;;
66669;SDS011;53568;52.164;4.472;2024-03-22T10:51:44;16.27;;;16.17;;
66669;SDS011;53568;52.164;4.472;2024-03-22T10:54:16;15.95;;;15.90;;
66669;SDS011;53568;52.164;4.472;2024-03-22T10:56:45;16.31;;;16.24;;
66669;SDS011;53568;52.164;4.472;2024-03-22T10:59:14;16.75;;;16.69;;
66669;SDS011;53568;52.164;4.472;2024-03-22T11:01:45;16.79;;;16.69;;
66669;SDS011;53568;52.164;4.472;2024-03-22T11:04:11;16.94;;;16.82;;
66669;SDS011;53568;52.164;4.472;2024-03-22T11:06:38;16.99;;;16.74;;
66669;SDS011;53568;52.164;4.472;2024-03-22T11:09:03;16.87;;;16.71;;
66669;SDS011;53568;52.164;4.472;2024-03-22T11:11:32;16.66;;;16.51;;
66669;SDS011;53568;52.164;4.472;2024-03-22T11:14:02;17.05;;;16.84;;
66669;SDS011;53568;52.164;4.472;2024-03-22T11:16:30;17.21;;;17.01;;
66669;SDS011;53568;52.164;4.472;2024-03-22T11:18:56;16.66;;;16.61;;
66669;SDS011;53568;52.164;4.472;2024-03-22T11:21:21;16.56;;;16.38;;
66669;SDS011;53568;52.164;4.472;2024-03-22T11:23:47;16.61;;;16.54;;
66669;SDS011;53568;52.164;4.472;2024-03-22T11:26:13;16.65;;;16.49;;
66669;SDS011;53568;52.164;4.472;2024-03-22T11:28:39;16.37;;;16.23;;
66669;SDS011;53568;52.164;4.472;2024-03-22T11:31:04;16.96;;;16.81;;
66669;SDS011;53568;52.164;4.472;2024-03-22T11:33:30;16.21;;;16.17;;
66669;SDS011;53568;52.164;4.472;2024-03-22T11:36:00;16.34;;;16.23;;
66669;SDS011;53568;52.164;4.472;2024-03-22T11:38:27;16.68;;;16.57;;
66669;SDS011;53568;52.164;4.472;2024-03-22T11:40:52;16.21;;;16.17;;
66669;SDS011;53568;52.164;4.472;2024-03-22T11:43:22;16.14;;;16.07;;
66669;SDS011;53568;52.164;4.472;2024-03-22T11:45:47;16.52;;;16.41;;
66669;SDS011;53568;52.164;4.472;2024-03-22T11:48:13;15.97;;;15.94;;
66669;SDS011;53568;52.164;4.472;2024-03-22T11:50:39;16.47;;;16.27;;
66669;SDS011;53568;52.164;4.472;2024-03-22T11:53:05;16.17;;;16.05;;
66669;SDS011;53568;52.164;4.472;2024-03-22T11:55:31;15.99;;;15.90;;
66669;SDS011;53568;52.164;4.472;2024-03-22T11:57:57;16.79;;;16.67;;
66669;SDS011;53568;52.164;4.472;2024-03-22T12:00:23;16.23;;;16.02;;
66669;SDS011;53568;52.164;4.472;2024-03-22T12:02:50;16.29;;;16.15;;
66669;SDS011;53568;52.164;4.472;2024-03-22T12:05:17;16.79;;;16.71;;
66669;SDS011;53568;52.164;4.472;2024-03-22T12:07:44;15.96;;;15.84;;
66669;SDS011;53568;52.164;4.472;2024-03-22T12:10:10;15.96;;;15.87;;
66669;SDS011;53568;52.164;4.472;2024-03-22T12:12:35;15.84;;;15.75;;
66669;SDS011;53568;52.164;4.472;2024-03-22T12:15:02;16.26;;;16.17;;
66669;SDS011;53568;52.164;4.472;2024-03-22T12:17:28;16.61;;;16.48;;
66669;SDS011;53568;52.164;4.472;2024-03-22T12:19:54;16.13;;;16.05;;
66669;SDS011;53568;52.164;4.472;2024-03-22T12:22:21;16.23;;;16.12;;
66669;SDS011;53568;52.164;4.472;2024-03-22T12:24:47;16.80;;;16.73;;
66669;SDS011;53568;52.164;4.472;2024-03-22T12:27:13;16.77;;;16.63;;
66669;SDS011;53568;52.164;4.472;2024-03-22T12:29:39;16.19;;;16.10;;
66669;SDS011;53568;52.164;4.472;2024-03-22T12:32:04;16.23;;;16.10;;
66669;SDS011;53568;52.164;4.472;2024-03-22T12:34:31;16.93;;;16.71;;
66669;SDS011;53568;52.164;4.472;2024-03-22T12:36:57;16.63;;;16.56;;
66669;SDS011;53568;52.164;4.472;2024-03-22T12:39:23;16.07;;;16.03;;
66669;SDS011;53568;52.164;4.472;2024-03-22T12:41:49;16.13;;;16.09;;
66669;SDS011;53568;52.164;4.472;2024-03-22T12:44:15;16.09;;;15.99;;
66669;SDS011;53568;52.164;4.472;2024-03-22T12:46:41;16.37;;;16.32;;
66669;SDS011;53568;52.164;4.472;2024-03-22T12:49:08;17.01;;;16.88;;
66669;SDS011;53568;52.164;4.472;2024-03-22T12:51:37;16.56;;;16.47;;
66669;SDS011;53568;52.164;4.472;2024-03-22T12:54:03;17.19;;;17.07;;
66669;SDS011;53568;52.164;4.472;2024-03-22T12:56:30;16.76;;;16.52;;
66669;SDS011;53568;52.164;4.472;2024-03-22T12:58:56;16.86;;;16.75;;
66669;SDS011;53568;52.164;4.472;2024-03-22T13:01:22;16.62;;;16.52;;
66669;SDS011;53568;52.164;4.472;2024-03-22T13:03:47;16.50;;;16.34;;
66669;SDS011;53568;52.164;4.472;2024-03-22T13:06:13;16.51;;;16.46;;
66669;SDS011;53568;52.164;4.472;2024-03-22T13:08:39;16.52;;;16.41;;
66669;SDS011;53568;52.164;4.472;2024-03-22T13:11:04;16.70;;;16.52;;
66669;SDS011;53568;52.164;4.472;2024-03-22T13:13:33;16.71;;;16.49;;
66669;SDS011;53568;52.164;4.472;2024-03-22T13:15:59;16.82;;;16.62;;
66669;SDS011;53568;52.164;4.472;2024-03-22T13:18:27;17.71;;;17.52;;
66669;SDS011;53568;52.164;4.472;2024-03-22T13:20:52;17.31;;;17.15;;
66669;SDS011;53568;52.164;4.472;2024-03-22T13:23:18;17.11;;;17.00;;
66669;SDS011;53568;52.164;4.472;2024-03-22T13:25:46;17.05;;;16.90;;
66669;SDS011;53568;52.164;4.472;2024-03-22T13:28:12;16.36;;;16.18;;
66669;SDS011;53568;52.164;4.472;2024-03-22T13:30:37;16.66;;;16.45;;
66669;SDS011;53568;52.164;4.472;2024-03-22T13:33:03;17.32;;;17.14;;
66669;SDS011;53568;52.164;4.472;2024-03-22T13:35:29;16.28;;;16.14;;
66669;SDS011;53568;52.164;4.472;2024-03-22T13:37:55;16.06;;;15.97;;
66669;SDS011;53568;52.164;4.472;2024-03-22T13:40:21;16.02;;;15.89;;
66669;SDS011;53568;52.164;4.472;2024-03-22T13:42:47;15.91;;;15.76;;
66669;SDS011;53568;52.164;4.472;2024-03-22T13:45:12;15.90;;;15.81;;
66669;SDS011;53568;52.164;4.472;2024-03-22T13:47:38;15.44;;;15.39;;
66669;SDS011;53568;52.164;4.472;2024-03-22T13:50:06;15.07;;;14.99;;
66669;SDS011;53568;52.164;4.472;2024-03-22T13:52:34;15.43;;;15.30;;
66669;SDS011;53568;52.164;4.472;2024-03-22T13:55:00;15.11;;;14.95;;
66669;SDS011;53568;52.164;4.472;2024-03-22T13:57:26;14.34;;;14.22;;
66669;SDS011;53568;52.164;4.472;2024-03-22T13:59:52;14.94;;;14.74;;
66669;SDS011;53568;52.164;4.472;2024-03-22T14:02:18;14.29;;;14.23;;
66669;SDS011;53568;52.164;4.472;2024-03-22T14:04:45;13.63;;;13.54;;
66669;SDS011;53568;52.164;4.472;2024-03-22T14:07:10;13.71;;;13.56;;
66669;SDS011;53568;52.164;4.472;2024-03-22T14:09:36;12.78;;;12.62;;
66669;SDS011;53568;52.164;4.472;2024-03-22T14:12:01;12.94;;;12.79;;
66669;SDS011;53568;52.164;4.472;2024-03-22T14:14:27;12.46;;;12.39;;
66669;SDS011;53568;52.164;4.472;2024-03-22T14:16:53;12.34;;;12.28;;
66669;SDS011;53568;52.164;4.472;2024-03-22T14:19:19;12.50;;;12.42;;